sensor_id;sensor_type;location;lat;lon;timestamp;P1;durP1;ratioP1;P2;durP2;ratioP2
48516;SDS011;34310;51.904;4.256;2022-11-20T00:01:07;9.98;;;8.70;;
48516;SDS011;34310;51.904;4.256;2022-11-20T00:03:42;10.43;;;8.25;;
48516;SDS011;34310;51.904;4.256;2022-11-20T00:06:11;9.60;;;8.57;;
48516;SDS011;34310;51.904;4.256;2022-11-20T00:08:40;9.95;;;8.45;;
48516;SDS011;34310;51.904;4.256;2022-11-20T00:11:09;10.13;;;9.13;;
48516;SDS011;34310;51.904;4.256;2022-11-20T00:13:45;8.85;;;7.78;;
48516;SDS011;34310;51.904;4.256;2022-11-20T00:16:16;10.13;;;8.55;;
48516;SDS011;34310;51.904;4.256;2022-11-20T00:18:45;9.55;;;8.45;;
48516;SDS011;34310;51.904;4.256;2022-11-20T00:21:14;9.20;;;8.20;;
48516;SDS011;34310;51.904;4.256;2022-11-20T00:23:44;9.63;;;8.63;;
48516;SDS011;34310;51.904;4.256;2022-11-20T00:26:15;9.07;;;8.13;;
48516;SDS011;34310;51.904;4.256;2022-11-20T00:28:48;8.85;;;7.97;;
48516;SDS011;34310;51.904;4.256;2022-11-20T00:31:17;9.75;;;7.90;;
48516;SDS011;34310;51.904;4.256;2022-11-20T00:33:45;9.07;;;8.18;;
48516;SDS011;34310;51.904;4.256;2022-11-20T00:36:14;8.95;;;8.05;;
48516;SDS011;34310;51.904;4.256;2022-11-20T00:38:45;8.65;;;7.70;;
48516;SDS011;34310;51.904;4.256;2022-11-20T00:41:13;8.73;;;7.68;;
48516;SDS011;34310;51.904;4.256;2022-11-20T00:43:42;9.07;;;8.13;;
48516;SDS011;34310;51.904;4.256;2022-11-20T00:46:13;8.88;;;7.97;;
48516;SDS011;34310;51.904;4.256;2022-11-20T00:48:41;8.82;;;7.93;;
48516;SDS011;34310;51.904;4.256;2022-11-20T00:51:10;9.80;;;7.40;;
48516;SDS011;34310;51.904;4.256;2022-11-20T00:53:39;7.68;;;6.88;;
48516;SDS011;34310;51.904;4.256;2022-11-20T00:56:09;9.60;;;8.15;;
48516;SDS011;34310;51.904;4.256;2022-11-20T00:58:38;8.00;;;7.20;;
48516;SDS011;34310;51.904;4.256;2022-11-20T01:01:08;10.55;;;6.97;;
48516;SDS011;34310;51.904;4.256;2022-11-20T01:03:37;8.93;;;7.63;;
48516;SDS011;34310;51.904;4.256;2022-11-20T01:06:07;7.97;;;7.15;;
48516;SDS011;34310;51.904;4.256;2022-11-20T01:08:39;7.55;;;6.78;;
48516;SDS011;34310;51.904;4.256;2022-11-20T01:11:09;7.63;;;6.82;;
48516;SDS011;34310;51.904;4.256;2022-11-20T01:13:39;8.23;;;6.97;;
48516;SDS011;34310;51.904;4.256;2022-11-20T01:18:37;8.27;;;7.40;;
48516;SDS011;34310;51.904;4.256;2022-11-20T01:21:06;8.00;;;7.20;;
48516;SDS011;34310;51.904;4.256;2022-11-20T01:23:37;8.23;;;7.03;;
48516;SDS011;34310;51.904;4.256;2022-11-20T01:26:07;8.40;;;7.55;;
48516;SDS011;34310;51.904;4.256;2022-11-20T01:28:37;8.20;;;7.07;;
48516;SDS011;34310;51.904;4.256;2022-11-20T01:31:16;7.70;;;6.90;;
48516;SDS011;34310;51.904;4.256;2022-11-20T01:36:19;8.48;;;7.68;;
48516;SDS011;34310;51.904;4.256;2022-11-20T01:38:52;7.70;;;6.90;;
48516;SDS011;34310;51.904;4.256;2022-11-20T01:41:27;8.48;;;7.57;;
48516;SDS011;34310;51.904;4.256;2022-11-20T01:44:15;8.65;;;6.88;;
48516;SDS011;34310;51.904;4.256;2022-11-20T01:46:50;8.20;;;7.40;;
48516;SDS011;34310;51.904;4.256;2022-11-20T01:49:45;8.13;;;7.32;;
48516;SDS011;34310;51.904;4.256;2022-11-20T01:54:51;8.88;;;7.53;;
48516;SDS011;34310;51.904;4.256;2022-11-20T02:00:12;9.05;;;7.25;;
48516;SDS011;34310;51.904;4.256;2022-11-20T02:02:42;8.63;;;7.72;;
48516;SDS011;34310;51.904;4.256;2022-11-20T02:05:35;8.73;;;7.82;;
48516;SDS011;34310;51.904;4.256;2022-11-20T02:08:05;9.80;;;7.90;;
48516;SDS011;34310;51.904;4.256;2022-11-20T02:10:33;8.00;;;7.20;;
48516;SDS011;34310;51.904;4.256;2022-11-20T02:13:01;8.55;;;7.65;;
48516;SDS011;34310;51.904;4.256;2022-11-20T02:15:48;8.45;;;7.43;;
48516;SDS011;34310;51.904;4.256;2022-11-20T02:18:17;8.60;;;7.10;;
48516;SDS011;34310;51.904;4.256;2022-11-20T02:20:47;8.30;;;7.40;;
48516;SDS011;34310;51.904;4.256;2022-11-20T02:26:10;7.82;;;7.03;;
48516;SDS011;34310;51.904;4.256;2022-11-20T02:28:40;7.93;;;7.13;;
48516;SDS011;34310;51.904;4.256;2022-11-20T02:31:07;8.25;;;7.45;;
48516;SDS011;34310;51.904;4.256;2022-11-20T02:33:35;8.00;;;7.13;;
48516;SDS011;34310;51.904;4.256;2022-11-20T02:36:02;8.57;;;7.68;;
48516;SDS011;34310;51.904;4.256;2022-11-20T02:38:29;8.30;;;7.40;;
48516;SDS011;34310;51.904;4.256;2022-11-20T02:40:57;8.80;;;7.22;;
48516;SDS011;34310;51.904;4.256;2022-11-20T02:43:24;8.15;;;7.35;;
48516;SDS011;34310;51.904;4.256;2022-11-20T02:45:52;8.15;;;7.35;;
48516;SDS011;34310;51.904;4.256;2022-11-20T02:48:19;9.63;;;7.32;;
48516;SDS011;34310;51.904;4.256;2022-11-20T02:50:49;8.40;;;7.53;;
48516;SDS011;34310;51.904;4.256;2022-11-20T02:53:16;9.32;;;7.68;;
48516;SDS011;34310;51.904;4.256;2022-11-20T02:55:44;8.27;;;7.47;;
48516;SDS011;34310;51.904;4.256;2022-11-20T02:58:11;8.18;;;7.25;;
48516;SDS011;34310;51.904;4.256;2022-11-20T03:00:38;8.85;;;7.68;;
48516;SDS011;34310;51.904;4.256;2022-11-20T03:03:06;8.80;;;7.50;;
48516;SDS011;34310;51.904;4.256;2022-11-20T03:05:33;8.55;;;7.65;;
48516;SDS011;34310;51.904;4.256;2022-11-20T03:08:00;10.15;;;7.63;;
48516;SDS011;34310;51.904;4.256;2022-11-20T03:10:27;9.20;;;8.10;;
48516;SDS011;34310;51.904;4.256;2022-11-20T03:12:55;9.15;;;7.82;;
48516;SDS011;34310;51.904;4.256;2022-11-20T03:15:23;8.43;;;7.53;;
48516;SDS011;34310;51.904;4.256;2022-11-20T03:17:53;7.65;;;6.85;;
48516;SDS011;34310;51.904;4.256;2022-11-20T03:20:21;7.90;;;7.10;;
48516;SDS011;34310;51.904;4.256;2022-11-20T03:22:49;8.10;;;7.03;;
48516;SDS011;34310;51.904;4.256;2022-11-20T03:25:16;7.88;;;6.68;;
48516;SDS011;34310;51.904;4.256;2022-11-20T03:27:43;7.28;;;6.57;;
48516;SDS011;34310;51.904;4.256;2022-11-20T03:30:10;7.40;;;6.60;;
48516;SDS011;34310;51.904;4.256;2022-11-20T03:32:38;7.18;;;6.47;;
48516;SDS011;34310;51.904;4.256;2022-11-20T03:35:06;6.82;;;6.13;;
48516;SDS011;34310;51.904;4.256;2022-11-20T03:37:33;7.38;;;6.65;;
48516;SDS011;34310;51.904;4.256;2022-11-20T03:40:01;7.35;;;6.65;;
48516;SDS011;34310;51.904;4.256;2022-11-20T03:42:28;6.90;;;6.20;;
48516;SDS011;34310;51.904;4.256;2022-11-20T03:45:14;7.90;;;6.38;;
48516;SDS011;34310;51.904;4.256;2022-11-20T03:47:43;7.35;;;6.30;;
48516;SDS011;34310;51.904;4.256;2022-11-20T03:50:11;7.97;;;6.70;;
48516;SDS011;34310;51.904;4.256;2022-11-20T03:52:40;7.95;;;6.78;;
48516;SDS011;34310;51.904;4.256;2022-11-20T03:55:07;7.25;;;6.55;;
48516;SDS011;34310;51.904;4.256;2022-11-20T03:57:35;7.82;;;7.03;;
48516;SDS011;34310;51.904;4.256;2022-11-20T04:00:03;7.68;;;6.88;;
48516;SDS011;34310;51.904;4.256;2022-11-20T04:02:31;7.57;;;6.68;;
48516;SDS011;34310;51.904;4.256;2022-11-20T04:04:58;8.18;;;6.95;;
48516;SDS011;34310;51.904;4.256;2022-11-20T04:07:26;7.20;;;6.50;;
48516;SDS011;34310;51.904;4.256;2022-11-20T04:09:53;7.88;;;6.57;;
48516;SDS011;34310;51.904;4.256;2022-11-20T04:12:20;7.95;;;7.00;;
48516;SDS011;34310;51.904;4.256;2022-11-20T04:14:47;8.18;;;6.90;;
48516;SDS011;34310;51.904;4.256;2022-11-20T04:17:15;8.02;;;7.22;;
48516;SDS011;34310;51.904;4.256;2022-11-20T04:19:42;7.35;;;6.50;;
48516;SDS011;34310;51.904;4.256;2022-11-20T04:22:09;7.70;;;6.90;;
48516;SDS011;34310;51.904;4.256;2022-11-20T04:24:38;7.90;;;7.10;;
48516;SDS011;34310;51.904;4.256;2022-11-20T04:27:05;8.13;;;7.30;;
48516;SDS011;34310;51.904;4.256;2022-11-20T04:29:32;8.18;;;7.25;;
48516;SDS011;34310;51.904;4.256;2022-11-20T04:32:00;8.73;;;7.32;;
48516;SDS011;34310;51.904;4.256;2022-11-20T04:34:27;8.27;;;7.45;;
48516;SDS011;34310;51.904;4.256;2022-11-20T04:36:54;8.40;;;6.80;;
48516;SDS011;34310;51.904;4.256;2022-11-20T04:39:21;7.78;;;6.97;;
48516;SDS011;34310;51.904;4.256;2022-11-20T04:41:49;8.20;;;7.30;;
48516;SDS011;34310;51.904;4.256;2022-11-20T04:44:36;8.27;;;7.47;;
48516;SDS011;34310;51.904;4.256;2022-11-20T04:47:04;8.77;;;7.88;;
48516;SDS011;34310;51.904;4.256;2022-11-20T04:49:31;8.52;;;7.60;;
48516;SDS011;34310;51.904;4.256;2022-11-20T04:52:00;9.13;;;7.38;;
48516;SDS011;34310;51.904;4.256;2022-11-20T04:54:27;8.18;;;7.35;;
48516;SDS011;34310;51.904;4.256;2022-11-20T04:56:54;8.40;;;7.60;;
48516;SDS011;34310;51.904;4.256;2022-11-20T04:59:21;8.40;;;7.50;;
48516;SDS011;34310;51.904;4.256;2022-11-20T05:01:49;8.82;;;7.93;;
48516;SDS011;34310;51.904;4.256;2022-11-20T05:04:17;9.13;;;8.15;;
48516;SDS011;34310;51.904;4.256;2022-11-20T05:06:44;8.63;;;7.68;;
48516;SDS011;34310;51.904;4.256;2022-11-20T05:09:12;8.48;;;7.18;;
48516;SDS011;34310;51.904;4.256;2022-11-20T05:11:39;8.07;;;7.30;;
48516;SDS011;34310;51.904;4.256;2022-11-20T05:14:07;8.40;;;7.60;;
48516;SDS011;34310;51.904;4.256;2022-11-20T05:16:34;9.23;;;8.27;;
48516;SDS011;34310;51.904;4.256;2022-11-20T05:19:02;7.68;;;6.88;;
48516;SDS011;34310;51.904;4.256;2022-11-20T05:21:32;8.63;;;7.40;;
48516;SDS011;34310;51.904;4.256;2022-11-20T05:23:59;8.43;;;7.53;;
48516;SDS011;34310;51.904;4.256;2022-11-20T05:26:27;8.00;;;7.20;;
48516;SDS011;34310;51.904;4.256;2022-11-20T05:28:54;9.07;;;7.47;;
48516;SDS011;34310;51.904;4.256;2022-11-20T05:31:22;7.93;;;7.10;;
48516;SDS011;34310;51.904;4.256;2022-11-20T05:33:53;7.90;;;6.80;;
48516;SDS011;34310;51.904;4.256;2022-11-20T05:36:22;7.35;;;6.65;;
48516;SDS011;34310;51.904;4.256;2022-11-20T05:38:49;8.40;;;7.60;;
48516;SDS011;34310;51.904;4.256;2022-11-20T05:41:21;8.27;;;7.47;;
48516;SDS011;34310;51.904;4.256;2022-11-20T05:43:49;8.02;;;7.22;;
48516;SDS011;34310;51.904;4.256;2022-11-20T05:46:17;8.27;;;7.47;;
48516;SDS011;34310;51.904;4.256;2022-11-20T05:48:53;9.27;;;7.20;;
48516;SDS011;34310;51.904;4.256;2022-11-20T05:51:20;8.00;;;7.20;;
48516;SDS011;34310;51.904;4.256;2022-11-20T05:53:48;8.73;;;7.65;;
48516;SDS011;34310;51.904;4.256;2022-11-20T05:56:16;7.60;;;6.80;;
48516;SDS011;34310;51.904;4.256;2022-11-20T05:58:45;7.85;;;7.05;;
48516;SDS011;34310;51.904;4.256;2022-11-20T06:01:17;7.68;;;6.88;;
48516;SDS011;34310;51.904;4.256;2022-11-20T06:03:50;8.75;;;7.50;;
48516;SDS011;34310;51.904;4.256;2022-11-20T06:06:18;8.32;;;7.53;;
48516;SDS011;34310;51.904;4.256;2022-11-20T06:08:46;8.27;;;7.38;;
48516;SDS011;34310;51.904;4.256;2022-11-20T06:11:14;8.88;;;7.55;;
48516;SDS011;34310;51.904;4.256;2022-11-20T06:13:42;9.82;;;7.63;;
48516;SDS011;34310;51.904;4.256;2022-11-20T06:16:10;8.05;;;7.25;;
48516;SDS011;34310;51.904;4.256;2022-11-20T06:18:39;7.88;;;7.07;;
48516;SDS011;34310;51.904;4.256;2022-11-20T06:21:14;7.82;;;7.10;;
48516;SDS011;34310;51.904;4.256;2022-11-20T06:23:43;8.00;;;7.20;;
48516;SDS011;34310;51.904;4.256;2022-11-20T06:26:12;8.93;;;7.43;;
48516;SDS011;34310;51.904;4.256;2022-11-20T06:28:41;8.18;;;7.30;;
48516;SDS011;34310;51.904;4.256;2022-11-20T06:31:10;7.75;;;6.95;;
48516;SDS011;34310;51.904;4.256;2022-11-20T06:33:39;8.50;;;7.60;;
48516;SDS011;34310;51.904;4.256;2022-11-20T06:36:07;7.90;;;7.10;;
48516;SDS011;34310;51.904;4.256;2022-11-20T06:38:36;8.30;;;7.50;;
48516;SDS011;34310;51.904;4.256;2022-11-20T06:41:05;8.50;;;7.60;;
48516;SDS011;34310;51.904;4.256;2022-11-20T06:43:33;8.27;;;7.47;;
48516;SDS011;34310;51.904;4.256;2022-11-20T06:46:00;8.80;;;7.43;;
48516;SDS011;34310;51.904;4.256;2022-11-20T06:48:27;9.07;;;7.93;;
48516;SDS011;34310;51.904;4.256;2022-11-20T06:50:56;8.43;;;7.55;;
48516;SDS011;34310;51.904;4.256;2022-11-20T06:53:24;8.60;;;7.78;;
48516;SDS011;34310;51.904;4.256;2022-11-20T06:55:51;8.68;;;7.78;;
48516;SDS011;34310;51.904;4.256;2022-11-20T06:58:21;9.38;;;8.48;;
48516;SDS011;34310;51.904;4.256;2022-11-20T07:00:48;9.88;;;8.38;;
48516;SDS011;34310;51.904;4.256;2022-11-20T07:03:16;8.82;;;7.93;;
48516;SDS011;34310;51.904;4.256;2022-11-20T07:05:43;10.05;;;8.48;;
48516;SDS011;34310;51.904;4.256;2022-11-20T07:08:12;9.90;;;8.55;;
48516;SDS011;34310;51.904;4.256;2022-11-20T07:10:39;9.52;;;8.48;;
48516;SDS011;34310;51.904;4.256;2022-11-20T07:13:06;9.98;;;8.73;;
48516;SDS011;34310;51.904;4.256;2022-11-20T07:15:33;9.98;;;8.85;;
48516;SDS011;34310;51.904;4.256;2022-11-20T07:18:01;9.43;;;8.43;;
48516;SDS011;34310;51.904;4.256;2022-11-20T07:20:28;11.27;;;8.90;;
48516;SDS011;34310;51.904;4.256;2022-11-20T07:22:56;10.55;;;9.30;;
48516;SDS011;34310;51.904;4.256;2022-11-20T07:25:24;11.30;;;9.02;;
48516;SDS011;34310;51.904;4.256;2022-11-20T07:27:52;8.85;;;7.95;;
48516;SDS011;34310;51.904;4.256;2022-11-20T07:30:26;11.05;;;8.80;;
48516;SDS011;34310;51.904;4.256;2022-11-20T07:32:54;9.80;;;8.50;;
48516;SDS011;34310;51.904;4.256;2022-11-20T07:35:23;9.73;;;8.73;;
48516;SDS011;34310;51.904;4.256;2022-11-20T07:37:51;9.60;;;8.60;;
48516;SDS011;34310;51.904;4.256;2022-11-20T07:40:18;10.98;;;8.80;;
48516;SDS011;34310;51.904;4.256;2022-11-20T07:42:53;9.32;;;8.25;;
48516;SDS011;34310;51.904;4.256;2022-11-20T07:45:22;10.23;;;8.80;;
48516;SDS011;34310;51.904;4.256;2022-11-20T07:47:50;10.27;;;9.07;;
48516;SDS011;34310;51.904;4.256;2022-11-20T07:50:17;10.23;;;9.13;;
48516;SDS011;34310;51.904;4.256;2022-11-20T07:52:45;10.23;;;8.90;;
48516;SDS011;34310;51.904;4.256;2022-11-20T07:55:13;10.43;;;9.32;;
48516;SDS011;34310;51.904;4.256;2022-11-20T07:57:41;10.40;;;9.25;;
48516;SDS011;34310;51.904;4.256;2022-11-20T08:00:09;11.43;;;9.85;;
48516;SDS011;34310;51.904;4.256;2022-11-20T08:02:40;10.85;;;9.63;;
48516;SDS011;34310;51.904;4.256;2022-11-20T08:05:08;11.02;;;9.82;;
48516;SDS011;34310;51.904;4.256;2022-11-20T08:07:37;12.10;;;9.82;;
48516;SDS011;34310;51.904;4.256;2022-11-20T08:10:09;13.50;;;11.20;;
48516;SDS011;34310;51.904;4.256;2022-11-20T08:15:32;12.40;;;10.93;;
48516;SDS011;34310;51.904;4.256;2022-11-20T08:18:00;13.85;;;11.50;;
48516;SDS011;34310;51.904;4.256;2022-11-20T08:20:49;13.05;;;11.65;;
48516;SDS011;34310;51.904;4.256;2022-11-20T08:23:16;15.15;;;12.93;;
48516;SDS011;34310;51.904;4.256;2022-11-20T08:25:48;13.27;;;11.43;;
48516;SDS011;34310;51.904;4.256;2022-11-20T08:28:16;16.52;;;12.85;;
48516;SDS011;34310;51.904;4.256;2022-11-20T08:30:47;16.13;;;13.43;;
48516;SDS011;34310;51.904;4.256;2022-11-20T08:33:16;17.35;;;13.82;;
48516;SDS011;34310;51.904;4.256;2022-11-20T08:35:44;17.58;;;14.30;;
48516;SDS011;34310;51.904;4.256;2022-11-20T08:38:12;18.60;;;14.38;;
48516;SDS011;34310;51.904;4.256;2022-11-20T08:40:39;18.15;;;15.57;;
48516;SDS011;34310;51.904;4.256;2022-11-20T08:43:06;21.13;;;16.70;;
48516;SDS011;34310;51.904;4.256;2022-11-20T08:45:33;20.50;;;16.33;;
48516;SDS011;34310;51.904;4.256;2022-11-20T08:48:01;20.77;;;17.33;;
48516;SDS011;34310;51.904;4.256;2022-11-20T08:50:30;20.77;;;16.85;;
48516;SDS011;34310;51.904;4.256;2022-11-20T08:53:03;23.85;;;18.15;;
48516;SDS011;34310;51.904;4.256;2022-11-20T08:55:31;24.17;;;18.55;;
48516;SDS011;34310;51.904;4.256;2022-11-20T08:58:04;22.08;;;17.60;;
48516;SDS011;34310;51.904;4.256;2022-11-20T09:00:33;21.67;;;17.45;;
48516;SDS011;34310;51.904;4.256;2022-11-20T09:03:00;22.42;;;17.80;;
48516;SDS011;34310;51.904;4.256;2022-11-20T09:05:28;25.83;;;19.77;;
48516;SDS011;34310;51.904;4.256;2022-11-20T09:07:56;25.08;;;19.42;;
48516;SDS011;34310;51.904;4.256;2022-11-20T09:10:24;25.30;;;19.58;;
48516;SDS011;34310;51.904;4.256;2022-11-20T09:12:52;23.40;;;18.60;;
48516;SDS011;34310;51.904;4.256;2022-11-20T09:15:21;25.17;;;19.52;;
48516;SDS011;34310;51.904;4.256;2022-11-20T09:17:56;26.02;;;20.42;;
48516;SDS011;34310;51.904;4.256;2022-11-20T09:20:28;26.38;;;20.83;;
48516;SDS011;34310;51.904;4.256;2022-11-20T09:22:56;27.55;;;20.45;;
48516;SDS011;34310;51.904;4.256;2022-11-20T09:25:24;28.88;;;22.08;;
48516;SDS011;34310;51.904;4.256;2022-11-20T09:27:55;27.13;;;21.70;;
48516;SDS011;34310;51.904;4.256;2022-11-20T09:30:23;29.38;;;22.15;;
48516;SDS011;34310;51.904;4.256;2022-11-20T09:32:51;29.75;;;22.73;;
48516;SDS011;34310;51.904;4.256;2022-11-20T09:35:19;29.95;;;22.85;;
48516;SDS011;34310;51.904;4.256;2022-11-20T09:37:46;33.30;;;24.13;;
48516;SDS011;34310;51.904;4.256;2022-11-20T09:40:20;31.85;;;24.25;;
48516;SDS011;34310;51.904;4.256;2022-11-20T09:48:20;33.97;;;24.70;;
48516;SDS011;34310;51.904;4.256;2022-11-20T09:53:52;29.98;;;22.70;;
48516;SDS011;34310;51.904;4.256;2022-11-20T09:56:24;31.40;;;23.10;;
48516;SDS011;34310;51.904;4.256;2022-11-20T09:58:54;29.30;;;21.95;;
48516;SDS011;34310;51.904;4.256;2022-11-20T10:01:32;31.83;;;23.83;;
48516;SDS011;34310;51.904;4.256;2022-11-20T10:06:31;29.75;;;22.83;;
48516;SDS011;34310;51.904;4.256;2022-11-20T10:25:22;29.92;;;23.13;;
48516;SDS011;34310;51.904;4.256;2022-11-20T10:28:04;30.23;;;23.25;;
48516;SDS011;34310;51.904;4.256;2022-11-20T10:30:38;29.88;;;22.35;;
48516;SDS011;34310;51.904;4.256;2022-11-20T10:33:19;31.05;;;23.92;;
48516;SDS011;34310;51.904;4.256;2022-11-20T10:35:55;29.65;;;23.27;;
48516;SDS011;34310;51.904;4.256;2022-11-20T10:38:37;32.53;;;24.15;;
48516;SDS011;34310;51.904;4.256;2022-11-20T10:41:11;30.10;;;22.35;;
48516;SDS011;34310;51.904;4.256;2022-11-20T10:43:58;31.77;;;22.80;;
48516;SDS011;34310;51.904;4.256;2022-11-20T10:47:03;29.27;;;22.55;;
48516;SDS011;34310;51.904;4.256;2022-11-20T10:49:36;29.67;;;23.40;;
48516;SDS011;34310;51.904;4.256;2022-11-20T11:00:13;30.98;;;22.35;;
48516;SDS011;34310;51.904;4.256;2022-11-20T11:02:44;27.92;;;22.08;;
48516;SDS011;34310;51.904;4.256;2022-11-20T11:07:54;29.92;;;22.05;;
48516;SDS011;34310;51.904;4.256;2022-11-20T11:13:18;29.23;;;21.73;;
48516;SDS011;34310;51.904;4.256;2022-11-20T11:15:50;28.88;;;21.42;;
48516;SDS011;34310;51.904;4.256;2022-11-20T11:18:31;30.35;;;22.10;;
48516;SDS011;34310;51.904;4.256;2022-11-20T11:21:00;29.58;;;21.40;;
48516;SDS011;34310;51.904;4.256;2022-11-20T11:26:04;34.00;;;21.15;;
48516;SDS011;34310;51.904;4.256;2022-11-20T11:28:33;30.08;;;21.15;;
48516;SDS011;34310;51.904;4.256;2022-11-20T11:31:01;29.75;;;21.38;;
48516;SDS011;34310;51.904;4.256;2022-11-20T11:33:29;29.40;;;22.20;;
48516;SDS011;34310;51.904;4.256;2022-11-20T11:35:58;36.95;;;21.60;;
48516;SDS011;34310;51.904;4.256;2022-11-20T11:41:07;32.47;;;21.63;;
48516;SDS011;34310;51.904;4.256;2022-11-20T11:43:49;37.25;;;22.35;;
48516;SDS011;34310;51.904;4.256;2022-11-20T11:51:56;30.90;;;21.42;;
48516;SDS011;34310;51.904;4.256;2022-11-20T11:57:05;31.80;;;22.13;;
48516;SDS011;34310;51.904;4.256;2022-11-20T12:02:35;29.65;;;22.02;;
48516;SDS011;34310;51.904;4.256;2022-11-20T12:07:56;30.73;;;22.20;;
48516;SDS011;34310;51.904;4.256;2022-11-20T12:10:50;32.10;;;23.48;;
48516;SDS011;34310;51.904;4.256;2022-11-20T12:16:07;33.80;;;23.97;;
48516;SDS011;34310;51.904;4.256;2022-11-20T12:18:40;33.83;;;24.25;;
48516;SDS011;34310;51.904;4.256;2022-11-20T12:41:05;35.85;;;26.48;;
48516;SDS011;34310;51.904;4.256;2022-11-20T12:52:56;41.60;;;29.08;;
48516;SDS011;34310;51.904;4.256;2022-11-20T12:55:41;39.75;;;28.95;;
48516;SDS011;34310;51.904;4.256;2022-11-20T13:01:03;39.65;;;28.60;;
48516;SDS011;34310;51.904;4.256;2022-11-20T13:06:54;40.88;;;29.52;;
48516;SDS011;34310;51.904;4.256;2022-11-20T13:09:22;45.85;;;30.90;;
48516;SDS011;34310;51.904;4.256;2022-11-20T13:19:53;40.92;;;28.50;;
48516;SDS011;34310;51.904;4.256;2022-11-20T13:22:29;42.53;;;29.55;;
48516;SDS011;34310;51.904;4.256;2022-11-20T13:25:24;43.47;;;28.35;;
48516;SDS011;34310;51.904;4.256;2022-11-20T13:27:53;40.20;;;29.02;;
48516;SDS011;34310;51.904;4.256;2022-11-20T13:30:22;41.67;;;29.00;;
48516;SDS011;34310;51.904;4.256;2022-11-20T13:33:05;46.45;;;28.38;;
48516;SDS011;34310;51.904;4.256;2022-11-20T13:35:57;39.47;;;28.00;;
48516;SDS011;34310;51.904;4.256;2022-11-20T13:38:26;39.83;;;29.05;;
48516;SDS011;34310;51.904;4.256;2022-11-20T13:41:00;40.25;;;27.48;;
48516;SDS011;34310;51.904;4.256;2022-11-20T13:43:51;40.67;;;28.75;;
48516;SDS011;34310;51.904;4.256;2022-11-20T13:46:20;36.28;;;27.45;;
48516;SDS011;34310;51.904;4.256;2022-11-20T13:48:50;42.08;;;26.95;;
48516;SDS011;34310;51.904;4.256;2022-11-20T14:02:37;36.63;;;26.13;;
48516;SDS011;34310;51.904;4.256;2022-11-20T14:05:06;34.38;;;26.02;;
48516;SDS011;34310;51.904;4.256;2022-11-20T14:07:48;33.92;;;25.88;;
48516;SDS011;34310;51.904;4.256;2022-11-20T14:10:22;38.70;;;26.73;;
48516;SDS011;34310;51.904;4.256;2022-11-20T14:12:57;34.58;;;24.55;;
48516;SDS011;34310;51.904;4.256;2022-11-20T14:15:35;31.48;;;23.17;;
48516;SDS011;34310;51.904;4.256;2022-11-20T14:18:28;34.03;;;24.08;;
48516;SDS011;34310;51.904;4.256;2022-11-20T14:20:55;33.67;;;24.63;;
48516;SDS011;34310;51.904;4.256;2022-11-20T14:23:27;31.77;;;24.05;;
48516;SDS011;34310;51.904;4.256;2022-11-20T14:25:55;34.38;;;24.48;;
48516;SDS011;34310;51.904;4.256;2022-11-20T14:28:26;32.90;;;24.52;;
48516;SDS011;34310;51.904;4.256;2022-11-20T14:30:55;28.88;;;22.55;;
48516;SDS011;34310;51.904;4.256;2022-11-20T14:33:23;33.90;;;24.10;;
48516;SDS011;34310;51.904;4.256;2022-11-20T14:35:56;32.20;;;23.23;;
48516;SDS011;34310;51.904;4.256;2022-11-20T14:38:28;31.52;;;23.17;;
48516;SDS011;34310;51.904;4.256;2022-11-20T14:41:07;27.30;;;21.38;;
48516;SDS011;34310;51.904;4.256;2022-11-20T14:43:45;30.15;;;21.67;;
48516;SDS011;34310;51.904;4.256;2022-11-20T14:46:22;31.10;;;21.85;;
48516;SDS011;34310;51.904;4.256;2022-11-20T14:48:51;24.42;;;20.30;;
48516;SDS011;34310;51.904;4.256;2022-11-20T14:51:27;27.77;;;21.95;;
48516;SDS011;34310;51.904;4.256;2022-11-20T14:54:18;26.48;;;20.17;;
48516;SDS011;34310;51.904;4.256;2022-11-20T14:56:55;26.05;;;20.65;;
48516;SDS011;34310;51.904;4.256;2022-11-20T14:59:24;26.67;;;20.02;;
48516;SDS011;34310;51.904;4.256;2022-11-20T15:01:59;25.08;;;20.23;;
48516;SDS011;34310;51.904;4.256;2022-11-20T15:04:32;24.83;;;19.15;;
48516;SDS011;34310;51.904;4.256;2022-11-20T15:06:59;27.25;;;19.40;;
48516;SDS011;34310;51.904;4.256;2022-11-20T15:09:27;24.35;;;18.48;;
48516;SDS011;34310;51.904;4.256;2022-11-20T15:11:55;24.80;;;19.42;;
48516;SDS011;34310;51.904;4.256;2022-11-20T15:14:30;22.70;;;17.83;;
48516;SDS011;34310;51.904;4.256;2022-11-20T15:16:58;21.95;;;17.85;;
48516;SDS011;34310;51.904;4.256;2022-11-20T15:19:26;22.55;;;17.33;;
48516;SDS011;34310;51.904;4.256;2022-11-20T15:21:53;21.63;;;16.90;;
48516;SDS011;34310;51.904;4.256;2022-11-20T15:24:21;23.67;;;16.58;;
48516;SDS011;34310;51.904;4.256;2022-11-20T15:26:48;32.78;;;16.92;;
48516;SDS011;34310;51.904;4.256;2022-11-20T15:29:16;21.25;;;17.13;;
48516;SDS011;34310;51.904;4.256;2022-11-20T15:31:45;20.85;;;16.08;;
48516;SDS011;34310;51.904;4.256;2022-11-20T15:34:13;19.45;;;15.88;;
48516;SDS011;34310;51.904;4.256;2022-11-20T15:36:41;20.73;;;16.13;;
48516;SDS011;34310;51.904;4.256;2022-11-20T15:39:09;23.25;;;14.23;;
48516;SDS011;34310;51.904;4.256;2022-11-20T15:41:37;19.52;;;15.05;;
48516;SDS011;34310;51.904;4.256;2022-11-20T15:44:05;19.15;;;14.30;;
48516;SDS011;34310;51.904;4.256;2022-11-20T15:46:35;22.83;;;14.60;;
48516;SDS011;34310;51.904;4.256;2022-11-20T15:49:15;17.40;;;14.18;;
48516;SDS011;34310;51.904;4.256;2022-11-20T15:51:46;18.52;;;13.88;;
48516;SDS011;34310;51.904;4.256;2022-11-20T15:54:15;16.88;;;13.18;;
48516;SDS011;34310;51.904;4.256;2022-11-20T15:56:47;28.70;;;13.88;;
48516;SDS011;34310;51.904;4.256;2022-11-20T15:59:15;18.60;;;13.35;;
48516;SDS011;34310;51.904;4.256;2022-11-20T16:01:43;16.20;;;12.85;;
48516;SDS011;34310;51.904;4.256;2022-11-20T16:04:14;17.38;;;13.30;;
48516;SDS011;34310;51.904;4.256;2022-11-20T16:06:42;17.45;;;13.32;;
48516;SDS011;34310;51.904;4.256;2022-11-20T16:09:09;16.63;;;12.00;;
48516;SDS011;34310;51.904;4.256;2022-11-20T16:11:37;15.45;;;12.45;;
48516;SDS011;34310;51.904;4.256;2022-11-20T16:14:05;14.98;;;12.48;;
48516;SDS011;34310;51.904;4.256;2022-11-20T16:16:53;15.82;;;12.23;;
48516;SDS011;34310;51.904;4.256;2022-11-20T16:19:21;18.77;;;12.18;;
48516;SDS011;34310;51.904;4.256;2022-11-20T16:21:48;19.50;;;12.15;;
48516;SDS011;34310;51.904;4.256;2022-11-20T16:24:15;16.02;;;12.07;;
48516;SDS011;34310;51.904;4.256;2022-11-20T16:26:43;14.73;;;11.40;;
48516;SDS011;34310;51.904;4.256;2022-11-20T16:29:10;16.08;;;11.90;;
48516;SDS011;34310;51.904;4.256;2022-11-20T16:31:37;15.40;;;11.52;;
48516;SDS011;34310;51.904;4.256;2022-11-20T16:34:05;17.50;;;11.80;;
48516;SDS011;34310;51.904;4.256;2022-11-20T16:36:48;14.88;;;11.65;;
48516;SDS011;34310;51.904;4.256;2022-11-20T16:39:15;14.60;;;11.70;;
48516;SDS011;34310;51.904;4.256;2022-11-20T16:41:49;14.65;;;11.68;;
48516;SDS011;34310;51.904;4.256;2022-11-20T16:44:16;14.15;;;11.80;;
48516;SDS011;34310;51.904;4.256;2022-11-20T16:46:43;14.07;;;11.80;;
48516;SDS011;34310;51.904;4.256;2022-11-20T16:49:12;14.35;;;11.35;;
48516;SDS011;34310;51.904;4.256;2022-11-20T16:51:40;13.85;;;11.00;;
48516;SDS011;34310;51.904;4.256;2022-11-20T16:54:08;15.57;;;11.75;;
48516;SDS011;34310;51.904;4.256;2022-11-20T16:56:40;13.93;;;10.88;;
48516;SDS011;34310;51.904;4.256;2022-11-20T16:59:08;16.45;;;11.65;;
48516;SDS011;34310;51.904;4.256;2022-11-20T17:01:35;20.55;;;11.18;;
48516;SDS011;34310;51.904;4.256;2022-11-20T17:04:05;16.83;;;11.82;;
48516;SDS011;34310;51.904;4.256;2022-11-20T17:06:34;16.25;;;11.43;;
48516;SDS011;34310;51.904;4.256;2022-11-20T17:09:04;15.68;;;11.48;;